createdAt,value
2023-03-26T00:02:18.482Z,66.25
2023-03-26T00:04:55.004Z,66.40
2023-03-26T00:07:31.272Z,66.53
2023-03-26T00:10:09.440Z,66.48
2023-03-26T00:12:45.947Z,66.57
2023-03-26T00:15:22.805Z,66.63
2023-03-26T00:18:00.775Z,66.64
2023-03-26T00:20:38.528Z,66.56
2023-03-26T00:23:14.852Z,66.67
2023-03-26T00:25:52.208Z,66.74
2023-03-26T00:28:29.915Z,66.74
2023-03-26T00:31:09.620Z,66.75
2023-03-26T00:33:47.815Z,66.99
2023-03-26T00:36:27.015Z,66.99
2023-03-26T00:39:05.889Z,67.07
2023-03-26T00:41:43.758Z,67.40
2023-03-26T00:44:20.044Z,67.41
2023-03-26T00:46:58.035Z,67.36
2023-03-26T00:49:34.842Z,67.46
2023-03-26T00:52:11.312Z,67.50
2023-03-26T00:54:48.323Z,67.61
2023-03-26T00:57:35.782Z,67.65
2023-03-26T01:06:02.821Z,67.90
2023-03-26T01:08:45.450Z,67.97
2023-03-26T01:11:26.903Z,68.16
2023-03-26T01:14:10.326Z,68.21
2023-03-26T01:16:52.171Z,68.20
2023-03-26T01:19:38.608Z,68.24
2023-03-26T01:22:20.759Z,68.42
2023-03-26T01:24:57.448Z,68.37
2023-03-26T01:27:44.489Z,68.35
2023-03-26T01:30:33.786Z,68.43
2023-03-26T01:33:22.017Z,68.55
2023-03-26T01:36:06.625Z,68.54
2023-03-26T01:39:00.620Z,68.45
2023-03-26T01:41:48.048Z,68.48
2023-03-26T01:44:32.854Z,68.47
2023-03-26T01:47:11.139Z,68.63
2023-03-26T01:49:47.362Z,68.73
2023-03-26T01:52:26.394Z,68.84
2023-03-26T01:55:03.355Z,68.90
2023-03-26T01:57:59.798Z,69.06
2023-03-26T02:00:43.710Z,69.50
2023-03-26T02:03:31.652Z,70.08
2023-03-26T02:06:18.007Z,70.53
2023-03-26T02:09:01.063Z,70.83
2023-03-26T02:11:39.554Z,71.10
2023-03-26T02:14:18.558Z,71.26
2023-03-26T02:16:56.589Z,71.54
2023-03-26T02:19:32.976Z,71.50
2023-03-26T02:22:11.359Z,71.71
2023-03-26T02:24:48.422Z,71.77
2023-03-26T02:27:24.812Z,71.83
2023-03-26T02:30:01.254Z,71.95
2023-03-26T02:32:38.922Z,72.02
2023-03-26T02:35:16.955Z,72.17
2023-03-26T02:37:53.411Z,72.29
2023-03-26T02:40:30.763Z,72.46
2023-03-26T02:43:07.696Z,72.58
2023-03-26T02:45:44.571Z,72.68
2023-03-26T02:49:08.440Z,72.73
2023-03-26T02:51:45.189Z,72.93
2023-03-26T02:54:32.654Z,73.08
2023-03-26T02:57:20.611Z,73.16
2023-03-26T03:00:17.469Z,73.17
2023-03-26T03:03:25.899Z,73.26
2023-03-26T03:06:23.355Z,73.29
2023-03-26T03:09:02.921Z,73.25
2023-03-26T03:11:46.010Z,73.44
2023-03-26T03:14:22.770Z,73.54
2023-03-26T03:16:59.035Z,73.75
2023-03-26T03:19:35.435Z,73.76
2023-03-26T03:22:11.818Z,73.75
2023-03-26T03:24:49.344Z,73.77
2023-03-26T03:27:26.239Z,73.86
2023-03-26T03:30:18.890Z,74.07
2023-03-26T03:32:58.526Z,73.95
2023-03-26T03:35:35.798Z,73.85
2023-03-26T03:38:13.217Z,74.01
2023-03-26T03:40:55.676Z,73.93
2023-03-26T03:43:33.884Z,73.88
2023-03-26T03:46:16.201Z,73.85
2023-03-26T03:48:55.116Z,73.99
2023-03-26T03:51:36.353Z,74.15
2023-03-26T03:54:16.125Z,74.15
2023-03-26T03:56:55.284Z,74.18
2023-03-26T03:59:47.621Z,74.09
2023-03-26T04:02:30.590Z,74.14
2023-03-26T04:05:11.729Z,74.10
2023-03-26T04:07:52.891Z,74.20
2023-03-26T04:10:38.636Z,74.67
2023-03-26T04:13:21.674Z,74.93
2023-03-26T04:16:01.226Z,75.07
2023-03-26T04:18:39.204Z,75.19
2023-03-26T04:21:21.198Z,75.32
2023-03-26T04:23:57.640Z,75.25
2023-03-26T04:26:52.865Z,75.28
2023-03-26T04:29:38.376Z,75.02
2023-03-26T04:32:24.743Z,74.78
2023-03-26T04:35:04.248Z,74.65
2023-03-26T04:37:46.170Z,74.55
2023-03-26T04:40:34.792Z,74.48
2023-03-26T04:43:27.752Z,74.42
2023-03-26T04:46:10.646Z,74.56
2023-03-26T04:48:54.445Z,74.49
2023-03-26T04:51:42.046Z,74.40
2023-03-26T04:54:30.440Z,74.27
2023-03-26T04:57:21.436Z,74.17
2023-03-26T05:00:03.887Z,74.14
2023-03-26T05:02:42.955Z,74.27
2023-03-26T05:05:20.498Z,74.27
2023-03-26T05:07:57.917Z,74.34
2023-03-26T05:10:35.151Z,74.11
2023-03-26T05:13:14.930Z,74.14
2023-03-26T05:15:57.141Z,74.14
2023-03-26T05:18:41.720Z,73.98
2023-03-26T05:21:18.581Z,73.71
2023-03-26T05:23:55.017Z,73.52
2023-03-26T05:26:31.874Z,73.55
2023-03-26T05:29:08.728Z,73.45
2023-03-26T05:31:50.330Z,73.46
2023-03-26T05:34:27.350Z,73.48
2023-03-26T05:37:04.563Z,73.41
2023-03-26T05:40:02.151Z,72.89
2023-03-26T05:43:00.533Z,72.27
2023-03-26T05:46:27.438Z,70.74
2023-03-26T05:49:04.120Z,70.68
2023-03-26T05:51:42.997Z,70.31
2023-03-26T05:55:10.644Z,70.19
2023-03-26T05:58:05.537Z,70.39
2023-03-26T06:01:08.480Z,70.62
2023-03-26T06:04:33.170Z,70.87
2023-03-26T06:07:28.304Z,70.59
2023-03-26T06:10:23.976Z,70.55
2023-03-26T06:13:00.584Z,70.37
2023-03-26T06:15:37.092Z,69.25
2023-03-26T06:18:24.956Z,66.89
2023-03-26T06:21:20.463Z,66.47
2023-03-26T06:24:08.991Z,65.83
2023-03-26T06:26:54.393Z,64.85
2023-03-26T06:29:54.817Z,65.19
2023-03-26T06:32:57.634Z,65.31
2023-03-26T06:35:37.963Z,65.08
2023-03-26T06:38:14.899Z,63.53
2023-03-26T06:40:51.296Z,63.85
2023-03-26T06:43:37.630Z,64.43
2023-03-26T06:46:23.587Z,64.05
2023-03-26T06:49:18.508Z,63.80
2023-03-26T06:52:35.578Z,64.28
2023-03-26T06:55:31.514Z,64.62
2023-03-26T06:58:18.522Z,65.06
2023-03-26T07:01:54.086Z,64.98
2023-03-26T07:05:13.199Z,64.46
2023-03-26T07:08:08.698Z,64.28
2023-03-26T07:11:48.464Z,64.26
2023-03-26T07:15:11.543Z,63.94
2023-03-26T07:17:57.311Z,63.41
2023-03-26T07:20:39.862Z,62.66
2023-03-26T07:23:20.635Z,62.16
2023-03-26T07:27:02.807Z,61.71
2023-03-26T07:29:55.237Z,61.04
2023-03-26T07:33:04.135Z,60.19
2023-03-26T07:36:00.196Z,59.64
2023-03-26T07:39:24.120Z,57.59
2023-03-26T07:43:04.425Z,55.65
2023-03-26T07:45:59.261Z,54.87
2023-03-26T07:48:54.221Z,53.48
2023-03-26T07:52:18.846Z,52.50
2023-03-26T07:55:47.759Z,50.52
2023-03-26T07:59:34.565Z,49.09
2023-03-26T08:03:08.965Z,48.11
2023-03-26T08:06:16.640Z,47.37
2023-03-26T08:09:28.417Z,46.45
2023-03-26T08:12:41.154Z,47.02
2023-03-26T08:15:30.853Z,47.03
2023-03-26T08:18:27.636Z,46.91
2023-03-26T08:21:11.351Z,47.32
2023-03-26T08:24:01.766Z,46.75
2023-03-26T08:26:49.592Z,46.92
2023-03-26T08:29:39.979Z,47.98
2023-03-26T08:32:22.307Z,47.54
2023-03-26T08:35:00.285Z,48.04
2023-03-26T08:37:36.849Z,47.53
2023-03-26T08:40:24.553Z,46.98
2023-03-26T08:43:58.858Z,46.21
2023-03-26T08:47:14.553Z,47.18
2023-03-26T08:50:33.086Z,47.94
2023-03-26T08:54:11.129Z,49.14
2023-03-26T08:57:09.929Z,48.93
2023-03-26T09:00:40.937Z,49.07
2023-03-26T09:04:15.702Z,48.77
2023-03-26T09:07:28.221Z,49.58
2023-03-26T09:11:12.095Z,50.21
2023-03-26T09:14:44.400Z,50.92
2023-03-26T09:18:21.169Z,50.79
2023-03-26T09:22:01.000Z,51.36
2023-03-26T09:28:20.860Z,49.48
2023-03-26T09:31:41.301Z,49.29
2023-03-26T09:34:48.088Z,49.78
2023-03-26T09:37:56.731Z,49.91
2023-03-26T09:40:54.386Z,50.13
2023-03-26T09:44:42.595Z,49.93
2023-03-26T09:48:15.111Z,51.42
2023-03-26T09:51:08.755Z,50.75
2023-03-26T09:54:11.641Z,50.68
2023-03-26T09:57:07.778Z,50.80
2023-03-26T10:00:25.599Z,49.58
2023-03-26T10:03:30.768Z,50.23
2023-03-26T10:06:32.420Z,49.95
2023-03-26T10:09:37.273Z,50.04
2023-03-26T10:12:32.292Z,48.77
2023-03-26T10:15:37.139Z,49.28
2023-03-26T10:18:33.564Z,49.64
2023-03-26T10:21:17.648Z,49.97
2023-03-26T10:24:20.478Z,49.61
2023-03-26T10:27:23.048Z,50.00
2023-03-26T10:30:33.773Z,50.55
2023-03-26T10:33:31.933Z,49.13
2023-03-26T10:36:35.858Z,49.50
2023-03-26T10:39:48.965Z,49.50
2023-03-26T10:43:03.308Z,48.67
2023-03-26T10:46:00.099Z,48.31
2023-03-26T10:49:21.992Z,47.76
2023-03-26T10:52:03.615Z,48.50
2023-03-26T10:54:59.438Z,48.32
2023-03-26T10:57:50.460Z,48.55
2023-03-26T11:00:31.419Z,48.02
2023-03-26T11:03:52.103Z,47.67
2023-03-26T11:06:42.902Z,46.94
2023-03-26T11:09:42.467Z,46.61
2023-03-26T11:12:30.606Z,47.28
2023-03-26T11:15:28.152Z,47.87
2023-03-26T11:18:19.024Z,48.32
2023-03-26T11:21:18.854Z,48.98
2023-03-26T11:24:20.620Z,48.44
2023-03-26T11:27:15.992Z,47.59
2023-03-26T11:30:14.602Z,47.61
2023-03-26T11:32:57.048Z,47.09
2023-03-26T11:35:40.483Z,47.53
2023-03-26T11:38:28.094Z,47.75
2023-03-26T11:41:12.681Z,48.01
2023-03-26T11:44:07.670Z,48.09
2023-03-26T11:46:50.908Z,48.52
2023-03-26T11:49:30.844Z,47.75
2023-03-26T11:52:08.232Z,48.09
2023-03-26T11:54:50.656Z,47.72
2023-03-26T11:57:34.029Z,48.47
2023-03-26T12:00:21.144Z,49.10
2023-03-26T12:03:01.777Z,50.74
2023-03-26T12:05:59.122Z,52.85
2023-03-26T12:08:42.628Z,53.81
2023-03-26T12:11:32.188Z,53.94
2023-03-26T12:14:17.700Z,53.99
2023-03-26T12:17:09.201Z,55.19
2023-03-26T12:19:48.326Z,53.94
2023-03-26T12:22:38.382Z,53.29
2023-03-26T12:25:25.374Z,53.51
2023-03-26T12:28:07.524Z,53.93
2023-03-26T12:30:54.396Z,53.37
2023-03-26T12:33:35.018Z,52.88
2023-03-26T12:36:31.348Z,52.14
2023-03-26T12:40:10.778Z,52.20
2023-03-26T12:44:50.581Z,51.22
2023-03-26T12:45:43.803Z,50.41
2023-03-26T12:48:25.702Z,51.08
2023-03-26T12:51:26.988Z,50.69
2023-03-26T12:54:35.991Z,51.15
2023-03-26T12:57:26.491Z,50.63
2023-03-26T13:00:51.802Z,49.66
2023-03-26T13:03:52.909Z,49.94
2023-03-26T13:06:59.711Z,49.40
2023-03-26T13:10:25.346Z,49.72
2023-03-26T13:13:28.159Z,49.02
2023-03-26T13:16:14.551Z,49.09
2023-03-26T13:19:00.696Z,48.50
2023-03-26T13:21:57.892Z,48.16
2023-03-26T13:24:54.790Z,47.36
2023-03-26T13:27:50.687Z,45.85
2023-03-26T13:30:43.866Z,45.55
2023-03-26T13:33:44.928Z,46.36
2023-03-26T13:36:32.557Z,46.83
2023-03-26T13:39:30.879Z,46.14
2023-03-26T13:42:33.852Z,46.26
2023-03-26T13:45:34.449Z,46.46
2023-03-26T13:48:18.725Z,46.71
2023-03-26T13:51:06.420Z,46.81
2023-03-26T13:53:54.155Z,46.86
2023-03-26T13:56:41.485Z,46.90
2023-03-26T13:59:31.624Z,46.90
2023-03-26T14:02:18.480Z,46.49
2023-03-26T14:05:02.403Z,46.24
2023-03-26T14:07:48.199Z,46.11
2023-03-26T14:10:30.748Z,44.28
2023-03-26T14:13:17.460Z,44.03
2023-03-26T14:16:00.685Z,44.57
2023-03-26T14:18:49.368Z,44.59
2023-03-26T14:21:56.137Z,45.00
2023-03-26T14:25:02.572Z,45.19
2023-03-26T14:28:12.041Z,45.54
2023-03-26T14:31:23.684Z,45.86
2023-03-26T14:34:35.461Z,46.42
2023-03-26T14:37:51.726Z,46.82
2023-03-26T14:40:58.844Z,46.02
2023-03-26T14:44:48.901Z,45.75
2023-03-26T14:47:27.517Z,45.86
2023-03-26T14:51:03.039Z,46.14
2023-03-26T14:53:46.375Z,46.08
2023-03-26T15:01:03.901Z,46.25
2023-03-26T15:04:57.604Z,46.22
2023-03-26T15:08:21.958Z,47.17
2023-03-26T15:11:32.318Z,46.85
2023-03-26T15:14:46.269Z,46.92
2023-03-26T15:18:29.517Z,47.33
2023-03-26T15:22:07.798Z,47.61
2023-03-26T15:26:09.917Z,47.70
2023-03-26T15:29:44.028Z,47.59
2023-03-26T15:33:10.558Z,47.82
2023-03-26T15:36:38.693Z,47.78
2023-03-26T15:40:00.082Z,47.71
2023-03-26T15:42:54.528Z,47.63
2023-03-26T15:45:41.627Z,47.70
2023-03-26T15:48:56.475Z,48.22
2023-03-26T15:51:56.732Z,48.38
2023-03-26T15:54:47.449Z,49.26
2023-03-26T15:57:36.354Z,49.03
2023-03-26T16:00:30.449Z,49.34
2023-03-26T16:03:43.227Z,49.23
2023-03-26T16:06:46.624Z,49.54
2023-03-26T16:09:52.170Z,49.68
2023-03-26T16:12:56.047Z,49.50
2023-03-26T16:15:38.091Z,49.69
2023-03-26T16:18:37.833Z,50.05
2023-03-26T16:21:57.715Z,49.52
2023-03-26T16:24:41.273Z,49.48
2023-03-26T16:27:38.872Z,49.39
2023-03-26T16:30:33.721Z,49.83
2023-03-26T16:33:36.188Z,49.34
2023-03-26T16:36:35.909Z,49.18
2023-03-26T16:39:44.815Z,48.97
2023-03-26T16:42:43.224Z,49.08
2023-03-26T16:45:35.394Z,49.11
2023-03-26T16:48:35.090Z,49.36
2023-03-26T16:51:26.411Z,49.46
2023-03-26T16:54:18.878Z,49.46
2023-03-26T16:57:11.313Z,49.70
2023-03-26T17:00:24.466Z,49.95
2023-03-26T17:03:24.360Z,49.83
2023-03-26T17:06:53.447Z,49.88
2023-03-26T17:09:52.754Z,49.93
2023-03-26T17:12:42.994Z,50.56
2023-03-26T17:15:37.607Z,50.63
2023-03-26T17:18:46.284Z,50.47
2023-03-26T17:21:45.891Z,50.66
2023-03-26T17:24:43.435Z,50.85
2023-03-26T17:28:28.061Z,51.18
2023-03-26T17:31:18.834Z,51.26
2023-03-26T17:33:56.696Z,51.38
2023-03-26T17:36:56.487Z,51.62
2023-03-26T17:40:51.068Z,52.02
2023-03-26T17:43:51.247Z,52.55
2023-03-26T17:46:37.671Z,52.99
2023-03-26T17:49:29.087Z,53.46
2023-03-26T17:52:20.944Z,53.77
2023-03-26T17:55:00.684Z,54.15
2023-03-26T17:57:45.050Z,54.43
2023-03-26T18:00:29.285Z,54.79
2023-03-26T18:03:16.797Z,55.00
2023-03-26T18:05:58.999Z,55.19
2023-03-26T18:08:57.396Z,55.46
2023-03-26T18:12:40.969Z,56.04
2023-03-26T18:15:49.066Z,57.39
2023-03-26T18:18:33.508Z,57.62
2023-03-26T18:21:14.794Z,57.30
2023-03-26T18:23:54.409Z,58.37
2023-03-26T18:26:44.853Z,58.78
2023-03-26T18:29:29.830Z,58.97
2023-03-26T18:32:23.637Z,59.04
2023-03-26T18:35:17.144Z,59.64
2023-03-26T18:37:58.969Z,60.44
2023-03-26T18:40:45.784Z,60.71
2023-03-26T18:43:34.480Z,60.54
2023-03-26T18:46:16.186Z,60.24
2023-03-26T18:48:55.817Z,60.23
2023-03-26T18:51:43.200Z,60.76
2023-03-26T18:54:34.221Z,61.27
2023-03-26T18:57:27.330Z,62.17
2023-03-26T19:00:25.576Z,62.77
2023-03-26T19:03:12.180Z,62.47
2023-03-26T19:05:50.522Z,62.70
2023-03-26T19:08:30.513Z,62.59
2023-03-26T19:11:10.052Z,63.05
2023-03-26T19:13:51.735Z,62.91
2023-03-26T19:16:33.954Z,63.15
2023-03-26T19:19:17.961Z,63.51
2023-03-26T19:21:59.077Z,63.75
2023-03-26T19:24:37.517Z,64.15
2023-03-26T19:27:16.766Z,63.79
2023-03-26T19:29:55.220Z,63.49
2023-03-26T19:32:36.777Z,63.39
2023-03-26T19:35:27.945Z,63.85
2023-03-26T19:38:13.836Z,63.65
2023-03-26T19:40:53.223Z,63.39
2023-03-26T19:53:51.656Z,66.35
2023-03-26T19:58:28.731Z,65.42
2023-03-26T20:03:03.898Z,66.03
2023-03-26T20:07:37.552Z,66.19
2023-03-26T20:36:14.561Z,70.40
2023-03-26T20:41:13.977Z,71.02
2023-03-26T20:50:23.668Z,72.35
2023-03-26T20:58:34.874Z,73.43
2023-03-26T21:01:14.444Z,73.64
2023-03-26T21:03:51.081Z,73.86
2023-03-26T21:06:27.549Z,74.00
2023-03-26T21:09:06.119Z,74.42
2023-03-26T21:12:01.896Z,74.92
2023-03-26T21:14:44.512Z,75.33
2023-03-26T21:17:24.897Z,75.60
2023-03-26T21:20:11.594Z,75.93
2023-03-26T21:22:54.971Z,76.12
2023-03-26T21:25:47.009Z,76.25
2023-03-26T21:28:42.336Z,76.36
2023-03-26T21:31:24.248Z,76.35
2023-03-26T21:34:03.961Z,76.29
2023-03-26T21:36:42.619Z,76.50
2023-03-26T21:39:20.946Z,76.50
2023-03-26T21:42:04.788Z,76.68
2023-03-26T21:44:45.115Z,76.94
2023-03-26T21:47:23.738Z,76.95
2023-03-26T21:50:02.455Z,77.14
2023-03-26T21:52:47.246Z,77.38
2023-03-26T21:55:27.921Z,77.42
2023-03-26T21:58:35.180Z,77.44
2023-03-26T22:01:33.316Z,77.56
2023-03-26T22:04:21.577Z,77.75
2023-03-26T22:07:06.947Z,78.11
2023-03-26T22:09:45.629Z,78.40
2023-03-26T22:12:22.273Z,78.59
2023-03-26T22:14:59.050Z,78.53
2023-03-26T22:17:35.973Z,78.63
2023-03-26T22:20:16.002Z,78.82
2023-03-26T22:22:53.521Z,78.82
2023-03-26T22:25:30.356Z,78.80
2023-03-26T22:28:06.784Z,78.99
2023-03-26T22:30:43.147Z,79.14
2023-03-26T22:33:19.523Z,79.34
2023-03-26T22:35:56.473Z,79.52
2023-03-26T22:38:32.963Z,79.67
2023-03-26T22:41:10.940Z,79.68
2023-03-26T22:43:47.438Z,79.65
2023-03-26T22:46:24.974Z,79.50
2023-03-26T22:49:01.684Z,79.50
2023-03-26T22:51:38.203Z,79.66
2023-03-26T22:54:14.656Z,79.73
2023-03-26T22:56:52.365Z,79.83
2023-03-26T22:59:28.915Z,80.01
2023-03-26T23:02:06.282Z,80.21
2023-03-26T23:04:42.910Z,80.22
2023-03-26T23:07:19.544Z,80.30
2023-03-26T23:09:55.800Z,80.39
2023-03-26T23:12:32.272Z,80.41
2023-03-26T23:15:10.229Z,80.51
2023-03-26T23:17:54.511Z,80.54
2023-03-26T23:20:37.661Z,80.52
2023-03-26T23:23:13.965Z,80.49
2023-03-26T23:25:51.912Z,80.46
2023-03-26T23:28:30.299Z,80.50
2023-03-26T23:31:12.267Z,80.59
2023-03-26T23:33:50.500Z,80.69
2023-03-26T23:36:27.343Z,80.69
2023-03-26T23:39:04.995Z,80.78
2023-03-26T23:41:41.339Z,80.93
2023-03-26T23:44:18.035Z,81.07
2023-03-26T23:46:58.050Z,81.09
2023-03-26T23:49:34.296Z,81.24
2023-03-26T23:52:11.783Z,81.32
2023-03-26T23:54:48.202Z,81.47
2023-03-26T23:57:24.601Z,81.59
